createdAt,value
2024-01-18T00:00:11.977Z,8.63
2024-01-18T00:02:41.909Z,7.97
2024-01-18T00:05:10.913Z,8.43
2024-01-18T00:07:39.552Z,8.10
2024-01-18T00:10:08.575Z,8.40
2024-01-18T00:12:38.134Z,7.43
2024-01-18T00:15:07.268Z,8.23
2024-01-18T00:17:36.048Z,8.77
2024-01-18T00:20:06.594Z,7.63
2024-01-18T00:22:35.420Z,7.00
2024-01-18T00:25:04.186Z,7.20
2024-01-18T00:27:32.891Z,7.47
2024-01-18T00:30:02.104Z,7.60
2024-01-18T00:32:30.798Z,9.07
2024-01-18T00:34:59.332Z,8.10
2024-01-18T00:37:29.336Z,8.83
2024-01-18T00:39:57.961Z,8.47
2024-01-18T00:42:26.513Z,8.37
2024-01-18T00:44:55.103Z,7.70
2024-01-18T00:47:23.700Z,7.90
2024-01-18T00:49:52.357Z,8.43
2024-01-18T00:52:21.070Z,9.60
2024-01-18T00:54:51.060Z,8.70
2024-01-18T00:57:19.618Z,7.87
2024-01-18T00:59:48.234Z,8.73
2024-01-18T01:02:16.904Z,10.10
2024-01-18T01:04:45.552Z,8.63
2024-01-18T01:07:14.172Z,9.77
2024-01-18T01:09:42.942Z,9.60
2024-01-18T01:12:12.922Z,8.97
2024-01-18T01:14:41.996Z,8.07
2024-01-18T01:17:10.570Z,8.57
2024-01-18T01:19:39.222Z,8.67
2024-01-18T01:22:07.776Z,9.87
2024-01-18T01:24:39.375Z,9.47
2024-01-18T01:27:08.169Z,8.70
2024-01-18T01:29:38.074Z,8.37
2024-01-18T01:32:07.364Z,8.17
2024-01-18T01:34:36.035Z,9.53
2024-01-18T01:37:04.706Z,9.23
2024-01-18T01:39:33.341Z,9.67
2024-01-18T01:42:04.048Z,9.43
2024-01-18T01:44:32.718Z,10.37
2024-01-18T01:47:02.898Z,9.57
2024-01-18T01:49:31.613Z,9.90
2024-01-18T01:52:01.644Z,9.27
2024-01-18T01:54:31.103Z,9.90
2024-01-18T01:57:01.163Z,7.83
2024-01-18T01:59:29.868Z,10.20
2024-01-18T02:01:58.477Z,9.20
2024-01-18T02:04:28.506Z,10.90
2024-01-18T02:06:58.944Z,9.37
2024-01-18T02:09:28.120Z,9.93
2024-01-18T02:11:56.893Z,8.97
2024-01-18T02:14:25.995Z,9.87
2024-01-18T02:16:54.644Z,9.07
2024-01-18T02:19:23.359Z,10.33
2024-01-18T02:21:53.583Z,8.97
2024-01-18T02:24:23.274Z,9.83
2024-01-18T02:26:53.463Z,9.70
2024-01-18T02:29:22.096Z,9.67
2024-01-18T02:31:50.705Z,9.80
2024-01-18T02:34:20.310Z,11.00
2024-01-18T02:36:49.065Z,7.73
2024-01-18T02:39:17.840Z,10.50
2024-01-18T02:41:46.518Z,8.60
2024-01-18T02:44:16.669Z,9.40
2024-01-18T02:46:45.270Z,9.23
2024-01-18T02:49:13.890Z,9.07
2024-01-18T02:51:42.432Z,9.10
2024-01-18T02:54:11.149Z,9.20
2024-01-18T02:56:39.912Z,8.40
2024-01-18T02:59:08.566Z,8.73
2024-01-18T03:01:38.426Z,8.03
2024-01-18T03:04:07.136Z,9.73
2024-01-18T03:06:36.105Z,9.40
2024-01-18T03:09:04.849Z,9.27
2024-01-18T03:11:33.498Z,8.67
2024-01-18T03:14:02.158Z,8.43
2024-01-18T03:16:30.748Z,9.17
2024-01-18T03:19:00.834Z,9.50
2024-01-18T03:21:29.603Z,9.13
2024-01-18T03:23:58.265Z,8.27
2024-01-18T03:26:26.959Z,8.37
2024-01-18T03:28:55.917Z,8.87
2024-01-18T03:31:24.493Z,7.43
2024-01-18T03:33:53.285Z,9.30
2024-01-18T03:36:23.298Z,7.97
2024-01-18T03:38:51.962Z,8.03
2024-01-18T03:41:21.550Z,7.43
2024-01-18T03:43:50.085Z,8.93
2024-01-18T03:46:18.641Z,8.53
2024-01-18T03:48:47.596Z,8.13
2024-01-18T03:51:16.329Z,8.27
2024-01-18T03:53:46.245Z,8.13
2024-01-18T03:56:15.117Z,8.00
2024-01-18T03:58:44.631Z,8.40
2024-01-18T04:01:13.478Z,8.37
2024-01-18T04:03:43.658Z,8.53
2024-01-18T04:06:14.962Z,8.13
2024-01-18T04:08:44.292Z,8.60
2024-01-18T04:11:14.249Z,8.53
2024-01-18T04:13:42.913Z,8.37
2024-01-18T04:16:11.496Z,7.87
2024-01-18T04:18:40.141Z,7.27
2024-01-18T04:21:09.311Z,8.37
2024-01-18T04:23:38.008Z,8.03
2024-01-18T04:26:06.592Z,7.47
2024-01-18T04:28:36.478Z,8.27
2024-01-18T04:31:05.142Z,6.93
2024-01-18T04:33:33.764Z,7.40
2024-01-18T04:36:02.453Z,7.47
2024-01-18T04:38:31.240Z,6.70
2024-01-18T04:40:59.811Z,7.70
2024-01-18T04:43:28.437Z,7.63
2024-01-18T04:45:58.443Z,7.77
2024-01-18T04:48:27.044Z,7.60
2024-01-18T04:50:55.600Z,8.03
2024-01-18T04:53:24.245Z,9.60
2024-01-18T04:55:54.631Z,8.23
2024-01-18T04:58:23.318Z,7.30
2024-01-18T05:00:52.114Z,8.23
2024-01-18T05:03:22.066Z,7.50
2024-01-18T05:05:50.903Z,7.03
2024-01-18T05:08:19.680Z,8.13
2024-01-18T05:10:48.257Z,6.87
2024-01-18T05:13:16.797Z,6.67
2024-01-18T05:15:45.658Z,7.60
2024-01-18T05:18:15.093Z,6.63
2024-01-18T05:20:45.167Z,8.87
2024-01-18T05:23:13.758Z,7.30
2024-01-18T05:25:42.312Z,7.47
2024-01-18T05:28:10.995Z,7.53
2024-01-18T05:30:39.640Z,8.27
2024-01-18T05:33:08.377Z,7.80
2024-01-18T05:35:37.021Z,7.80
2024-01-18T05:38:07.080Z,8.57
2024-01-18T05:40:35.938Z,8.30
2024-01-18T05:43:04.789Z,8.30
2024-01-18T05:45:33.470Z,12.83
2024-01-18T05:48:02.508Z,8.43
2024-01-18T05:50:31.244Z,7.77
2024-01-18T05:52:59.797Z,7.60
2024-01-18T05:55:29.764Z,7.63
2024-01-18T05:57:58.809Z,6.63
2024-01-18T06:00:27.432Z,10.33
2024-01-18T06:02:57.517Z,8.00
2024-01-18T06:05:26.286Z,6.93
2024-01-18T06:07:54.888Z,6.90
2024-01-18T06:10:23.490Z,6.80
2024-01-18T06:12:53.355Z,7.90
2024-01-18T06:15:23.538Z,6.87
2024-01-18T06:17:52.343Z,6.13
2024-01-18T06:20:20.996Z,5.37
2024-01-18T06:22:49.527Z,6.40
2024-01-18T06:25:19.073Z,6.67
2024-01-18T06:27:47.756Z,7.57
2024-01-18T06:30:19.396Z,5.77
2024-01-18T06:32:48.133Z,7.33
2024-01-18T06:35:16.735Z,6.63
2024-01-18T06:37:53.414Z,6.97
2024-01-18T06:40:22.091Z,7.33
2024-01-18T06:42:51.156Z,7.20
2024-01-18T06:45:21.104Z,7.27
2024-01-18T06:47:49.778Z,6.17
2024-01-18T06:50:18.478Z,7.13
2024-01-18T06:52:47.100Z,6.67
2024-01-18T06:55:15.781Z,6.47
2024-01-18T06:57:48.089Z,5.43
2024-01-18T07:00:17.458Z,5.93
2024-01-18T07:02:47.443Z,6.80
2024-01-18T07:05:16.181Z,6.27
2024-01-18T07:07:44.713Z,6.63
2024-01-18T07:10:13.540Z,4.80
2024-01-18T07:12:42.142Z,7.63
2024-01-18T07:15:11.124Z,6.93
2024-01-18T07:17:39.771Z,6.97
2024-01-18T07:20:10.608Z,7.50
2024-01-18T07:22:39.484Z,7.47
2024-01-18T07:25:09.747Z,6.53
2024-01-18T07:27:39.051Z,7.97
2024-01-18T07:30:08.522Z,7.20
2024-01-18T07:32:37.112Z,5.53
2024-01-18T07:35:05.986Z,6.00
2024-01-18T07:37:36.034Z,6.47
2024-01-18T07:40:04.727Z,5.57
2024-01-18T07:42:33.346Z,5.03
2024-01-18T07:45:02.387Z,5.87
2024-01-18T07:47:31.098Z,7.53
2024-01-18T07:50:03.740Z,8.00
2024-01-18T07:52:40.629Z,7.10
2024-01-18T07:55:09.244Z,7.20
2024-01-18T07:57:39.355Z,7.87
2024-01-18T08:00:09.673Z,6.80
2024-01-18T08:02:38.397Z,6.27
2024-01-18T08:05:07.192Z,6.33
2024-01-18T08:07:36.386Z,6.43
2024-01-18T08:10:07.177Z,7.47
2024-01-18T08:12:35.882Z,7.00
2024-01-18T08:15:04.720Z,7.57
2024-01-18T08:17:33.606Z,9.63
2024-01-18T08:20:02.309Z,8.73
2024-01-18T08:22:30.999Z,8.60
2024-01-18T08:24:59.603Z,7.30
2024-01-18T08:27:29.523Z,8.37
2024-01-18T08:29:59.126Z,9.17
2024-01-18T08:32:32.914Z,9.33
2024-01-18T08:35:02.085Z,9.30
2024-01-18T08:37:30.772Z,9.07
2024-01-18T08:39:59.500Z,9.40
2024-01-18T08:42:29.512Z,11.40
2024-01-18T08:44:58.175Z,10.10
2024-01-18T08:47:27.646Z,11.30
2024-01-18T08:49:56.440Z,9.97
2024-01-18T08:52:25.174Z,10.70
2024-01-18T08:54:53.921Z,10.80
2024-01-18T08:57:22.697Z,9.77
2024-01-18T08:59:52.591Z,11.10
2024-01-18T09:02:24.063Z,11.07
2024-01-18T09:04:53.332Z,11.87
2024-01-18T09:07:22.429Z,9.47
2024-01-18T09:09:51.147Z,11.17
2024-01-18T09:12:19.827Z,12.83
2024-01-18T09:14:48.483Z,11.37
2024-01-18T09:17:18.390Z,11.33
2024-01-18T09:19:47.043Z,12.07
2024-01-18T09:22:16.110Z,11.33
2024-01-18T09:24:45.186Z,12.03
2024-01-18T09:27:13.941Z,12.17
2024-01-18T09:29:42.640Z,11.10
2024-01-18T09:32:11.628Z,14.63
2024-01-18T09:34:41.509Z,15.63
2024-01-18T09:37:10.561Z,15.23
2024-01-18T09:39:41.026Z,17.83
2024-01-18T09:42:13.734Z,15.50
2024-01-18T09:44:44.321Z,14.13
2024-01-18T09:47:13.057Z,13.00
2024-01-18T09:49:44.387Z,12.07
2024-01-18T09:52:13.220Z,11.07
2024-01-18T09:54:43.810Z,12.47
2024-01-18T09:57:15.380Z,12.57
2024-01-18T09:59:45.393Z,9.20
2024-01-18T10:02:14.192Z,8.57
2024-01-18T10:04:44.878Z,10.70
2024-01-18T10:07:13.945Z,11.80
2024-01-18T10:09:42.833Z,7.60
2024-01-18T10:12:14.441Z,6.90
2024-01-18T10:14:43.672Z,6.47
2024-01-18T10:17:12.300Z,6.47
2024-01-18T10:19:40.917Z,6.40
2024-01-18T10:22:12.929Z,5.87
2024-01-18T10:24:42.188Z,6.33
2024-01-18T10:27:10.893Z,6.03
2024-01-18T10:29:39.819Z,6.03
2024-01-18T10:32:08.924Z,5.73
2024-01-18T10:34:38.095Z,4.53
2024-01-18T10:37:07.158Z,5.33
2024-01-18T10:39:47.138Z,4.97
2024-01-18T10:42:16.427Z,5.80
2024-01-18T10:44:46.169Z,5.70
2024-01-18T10:47:15.317Z,5.87
2024-01-18T10:49:46.223Z,5.70
2024-01-18T10:52:14.841Z,5.77
2024-01-18T10:54:50.546Z,5.43
2024-01-18T10:57:23.579Z,5.77
2024-01-18T10:59:53.218Z,5.30
2024-01-18T11:02:22.854Z,4.67
2024-01-18T11:04:55.644Z,4.77
2024-01-18T11:07:25.188Z,5.33
2024-01-18T11:09:56.159Z,4.90
2024-01-18T11:12:27.276Z,4.03
2024-01-18T11:14:56.104Z,4.80
2024-01-18T11:17:24.758Z,5.13
2024-01-18T11:19:55.801Z,4.70
2024-01-18T11:22:25.634Z,4.47
2024-01-18T11:24:55.967Z,4.20
2024-01-18T11:27:26.594Z,3.57
2024-01-18T11:29:55.269Z,4.07
2024-01-18T11:32:24.556Z,4.33
2024-01-18T11:34:57.473Z,4.10
2024-01-18T11:37:27.643Z,3.80
2024-01-18T11:39:58.211Z,4.13
2024-01-18T11:42:28.202Z,4.27
2024-01-18T11:44:57.904Z,3.77
2024-01-18T11:47:27.303Z,3.30
2024-01-18T11:49:55.987Z,3.23
2024-01-18T11:52:25.140Z,3.90
2024-01-18T11:54:56.920Z,3.50
2024-01-18T11:57:27.961Z,3.40
2024-01-18T11:59:56.769Z,2.80
2024-01-18T12:02:26.058Z,3.70
2024-01-18T12:04:54.815Z,3.00
2024-01-18T12:07:24.270Z,2.60
2024-01-18T12:09:53.103Z,2.93
2024-01-18T12:12:21.998Z,2.30
2024-01-18T12:14:52.139Z,2.27
2024-01-18T12:17:20.780Z,2.70
2024-01-18T12:19:49.986Z,1.87
2024-01-18T12:22:19.798Z,2.00
2024-01-18T12:24:50.381Z,2.20
2024-01-18T12:27:19.321Z,1.90
2024-01-18T12:29:48.211Z,1.60
2024-01-18T12:32:20.044Z,2.30
2024-01-18T12:34:48.979Z,2.87
2024-01-18T12:37:17.711Z,1.80
2024-01-18T12:39:46.318Z,1.90
2024-01-18T12:42:15.974Z,2.23
2024-01-18T12:44:44.618Z,1.63
2024-01-18T12:47:13.233Z,1.50
2024-01-18T12:49:43.243Z,1.33
2024-01-18T12:52:12.567Z,1.20
2024-01-18T12:54:41.278Z,1.00
2024-01-18T12:57:13.431Z,1.80
2024-01-18T12:59:42.963Z,1.57
2024-01-18T13:02:11.601Z,1.83
2024-01-18T13:04:40.195Z,1.63
2024-01-18T13:07:13.481Z,1.50
2024-01-18T13:09:43.274Z,1.63
2024-01-18T13:12:12.038Z,1.47
2024-01-18T13:14:40.633Z,1.17
2024-01-18T13:17:09.452Z,1.07
2024-01-18T13:19:41.235Z,1.60
2024-01-18T13:22:11.407Z,0.90
2024-01-18T13:24:40.077Z,0.80
2024-01-18T13:27:08.720Z,1.43
2024-01-18T13:29:38.016Z,1.40
2024-01-18T13:32:06.990Z,1.37
2024-01-18T13:34:36.594Z,1.27
2024-01-18T13:37:10.868Z,1.20
2024-01-18T13:39:45.653Z,0.93
2024-01-18T13:42:14.279Z,1.00
2024-01-18T13:44:42.837Z,1.30
2024-01-18T13:47:11.527Z,1.00
2024-01-18T13:49:40.374Z,1.17
2024-01-18T13:52:09.225Z,1.30
2024-01-18T13:54:37.882Z,0.97
2024-01-18T13:57:07.938Z,1.10
2024-01-18T13:59:36.493Z,1.37
2024-01-18T14:02:05.254Z,1.17
2024-01-18T14:04:34.014Z,1.43
2024-01-18T14:07:02.699Z,1.37
2024-01-18T14:09:33.944Z,1.50
2024-01-18T14:12:03.116Z,1.90
2024-01-18T14:14:33.058Z,1.67
2024-01-18T14:17:01.662Z,2.10
2024-01-18T14:19:30.427Z,1.20
2024-01-18T14:21:59.127Z,1.57
2024-01-18T14:24:27.904Z,4.83
2024-01-18T14:26:56.519Z,2.50
2024-01-18T14:29:25.122Z,2.20
2024-01-18T14:31:54.969Z,2.00
2024-01-18T14:34:24.712Z,1.33
2024-01-18T14:36:53.449Z,1.10
2024-01-18T14:39:22.287Z,2.57
2024-01-18T14:41:50.924Z,2.33
2024-01-18T14:44:20.648Z,1.13
2024-01-18T14:46:49.223Z,4.10
2024-01-18T14:49:31.576Z,3.63
2024-01-18T14:52:00.386Z,2.13
2024-01-18T14:54:29.097Z,1.40
2024-01-18T14:56:57.972Z,1.37
2024-01-18T14:59:26.602Z,1.80
2024-01-18T15:01:55.281Z,2.33
2024-01-18T15:04:25.444Z,1.60
2024-01-18T15:06:54.208Z,1.20
2024-01-18T15:09:22.848Z,1.70
2024-01-18T15:11:51.958Z,1.87
2024-01-18T15:14:20.608Z,1.53
2024-01-18T15:16:49.215Z,1.23
2024-01-18T15:19:18.268Z,1.20
2024-01-18T15:21:48.683Z,1.27
2024-01-18T15:24:17.720Z,1.67
2024-01-18T15:26:46.298Z,1.03
2024-01-18T15:29:14.939Z,1.07
2024-01-18T15:31:44.246Z,1.23
2024-01-18T15:34:14.414Z,1.10
2024-01-18T15:36:43.152Z,1.57
2024-01-18T15:39:13.311Z,1.20
2024-01-18T15:41:45.852Z,1.33
2024-01-18T15:44:14.872Z,0.90
2024-01-18T15:46:48.786Z,1.20
2024-01-18T15:49:17.616Z,1.00
2024-01-18T15:51:46.533Z,1.00
2024-01-18T15:54:16.581Z,1.20
2024-01-18T15:56:45.204Z,0.83
2024-01-18T15:59:13.793Z,1.13
2024-01-18T16:01:42.830Z,0.90
2024-01-18T16:04:11.548Z,1.40
2024-01-18T16:06:41.519Z,0.93
2024-01-18T16:09:10.320Z,1.53
2024-01-18T16:11:40.240Z,1.30
2024-01-18T16:14:09.510Z,0.70
2024-01-18T16:16:38.199Z,1.20
2024-01-18T16:19:06.926Z,1.07
2024-01-18T16:21:35.667Z,0.90
2024-01-18T16:24:05.156Z,1.90
2024-01-18T16:26:33.789Z,1.23
2024-01-18T16:29:03.667Z,1.30
2024-01-18T16:31:32.304Z,1.53
2024-01-18T16:34:00.942Z,1.23
2024-01-18T16:36:29.625Z,1.63
2024-01-18T16:38:58.358Z,1.27
2024-01-18T16:41:26.981Z,0.87
2024-01-18T16:43:55.621Z,1.10
2024-01-18T16:46:25.655Z,0.87
2024-01-18T16:48:54.394Z,0.90
2024-01-18T16:51:23.106Z,1.20
2024-01-18T16:53:51.765Z,1.20
2024-01-18T16:56:20.548Z,1.30
2024-01-18T16:58:49.186Z,1.57
2024-01-18T17:01:17.805Z,1.70
2024-01-18T17:03:47.820Z,1.23
2024-01-18T17:06:17.988Z,1.20
2024-01-18T17:08:47.038Z,1.80
2024-01-18T17:11:20.647Z,1.37
2024-01-18T17:13:49.982Z,2.63
2024-01-18T17:16:19.180Z,1.53
2024-01-18T17:18:49.127Z,2.80
2024-01-18T17:21:17.969Z,1.00
2024-01-18T17:23:46.756Z,1.30
2024-01-18T17:26:15.393Z,1.23
2024-01-18T17:28:44.054Z,0.77
2024-01-18T17:31:13.726Z,1.23
2024-01-18T17:33:44.317Z,1.73
2024-01-18T17:36:14.349Z,0.90
2024-01-18T17:38:43.115Z,1.40
2024-01-18T17:41:11.798Z,1.30
2024-01-18T17:43:40.432Z,1.50
2024-01-18T17:46:10.805Z,1.87
2024-01-18T17:48:42.177Z,1.53
2024-01-18T17:51:11.388Z,1.70
2024-01-18T17:53:41.429Z,2.20
2024-01-18T17:56:10.009Z,2.73
2024-01-18T17:58:38.628Z,3.00
2024-01-18T18:01:07.517Z,2.73
2024-01-18T18:03:38.753Z,3.50
2024-01-18T18:06:08.395Z,3.53
2024-01-18T18:08:37.456Z,6.00
2024-01-18T18:11:07.724Z,7.97
2024-01-18T18:13:36.758Z,3.50
2024-01-18T18:16:05.613Z,2.83
2024-01-18T18:18:35.710Z,1.17
2024-01-18T18:21:06.407Z,1.80
2024-01-18T18:23:35.029Z,2.10
2024-01-18T18:26:07.956Z,1.73
2024-01-18T18:28:38.836Z,3.00
2024-01-18T18:31:07.964Z,2.90
2024-01-18T18:33:36.579Z,4.57
2024-01-18T18:36:05.552Z,4.30
2024-01-18T18:38:34.539Z,4.33
2024-01-18T18:41:03.938Z,3.07
2024-01-18T18:43:32.691Z,3.93
2024-01-18T18:46:02.673Z,3.40
2024-01-18T18:48:31.363Z,2.80
2024-01-18T18:51:01.330Z,3.80
2024-01-18T18:53:29.968Z,3.87
2024-01-18T18:55:58.701Z,6.03
2024-01-18T18:58:27.470Z,4.57
2024-01-18T19:00:56.117Z,6.70
2024-01-18T19:03:26.254Z,5.37
2024-01-18T19:05:55.910Z,5.93
2024-01-18T19:08:24.679Z,6.93
2024-01-18T19:10:55.845Z,3.20
2024-01-18T19:13:25.154Z,3.50
2024-01-18T19:15:54.578Z,5.27
2024-01-18T19:18:23.521Z,5.43
2024-01-18T19:20:53.855Z,4.10
2024-01-18T19:23:22.630Z,4.37
2024-01-18T19:25:51.205Z,2.40
2024-01-18T19:28:19.738Z,4.13
2024-01-18T19:30:48.333Z,3.30
2024-01-18T19:33:17.101Z,1.80
2024-01-18T19:35:45.742Z,2.27
2024-01-18T19:38:15.684Z,2.13
2024-01-18T19:40:44.706Z,1.90
2024-01-18T19:43:13.606Z,2.43
2024-01-18T19:45:42.405Z,2.13
2024-01-18T19:48:11.200Z,2.53
2024-01-18T19:50:39.963Z,3.23
2024-01-18T19:53:08.797Z,2.03
2024-01-18T19:55:38.804Z,2.10
2024-01-18T19:58:07.700Z,2.37
2024-01-18T20:00:36.302Z,2.40
2024-01-18T20:03:04.946Z,2.20
2024-01-18T20:05:34.372Z,2.13
2024-01-18T20:08:03.407Z,1.60
2024-01-18T20:10:32.064Z,2.00
2024-01-18T20:13:01.974Z,1.97
2024-01-18T20:15:30.665Z,2.30
2024-01-18T20:18:00.443Z,1.80
2024-01-18T20:20:29.218Z,2.03
2024-01-18T20:22:57.907Z,2.43
2024-01-18T20:25:26.640Z,2.13
2024-01-18T20:27:55.319Z,1.73
2024-01-18T20:30:25.302Z,2.20
2024-01-18T20:32:54.066Z,2.40
2024-01-18T20:35:22.819Z,2.40
2024-01-18T20:37:51.373Z,2.83
2024-01-18T20:40:20.202Z,2.50
2024-01-18T20:42:48.848Z,2.83
2024-01-18T20:45:17.538Z,2.40
2024-01-18T20:47:47.596Z,1.93
2024-01-18T20:50:16.321Z,1.97
2024-01-18T20:52:44.882Z,2.33
2024-01-18T20:55:13.579Z,2.87
2024-01-18T20:57:42.246Z,2.47
2024-01-18T21:00:18.490Z,3.30
2024-01-18T21:02:53.937Z,3.77
2024-01-18T21:05:22.606Z,3.00
2024-01-18T21:07:51.753Z,4.33
2024-01-18T21:10:20.374Z,4.10
2024-01-18T21:12:49.742Z,2.13
2024-01-18T21:15:18.317Z,2.83
2024-01-18T21:17:46.913Z,2.70
2024-01-18T21:20:17.228Z,2.83
2024-01-18T21:22:45.864Z,2.87
2024-01-18T21:25:14.487Z,1.70
2024-01-18T21:27:43.053Z,2.10
2024-01-18T21:30:11.813Z,2.33
2024-01-18T21:32:40.566Z,2.00
2024-01-18T21:35:09.346Z,2.27
2024-01-18T21:37:39.287Z,2.60
2024-01-18T21:40:08.614Z,3.50
2024-01-18T21:42:37.195Z,2.93
2024-01-18T21:45:06.285Z,3.23
2024-01-18T21:47:35.222Z,2.83
2024-01-18T21:50:04.098Z,2.30
2024-01-18T21:52:32.836Z,2.07
2024-01-18T21:55:03.055Z,1.80
2024-01-18T21:57:32.138Z,2.40
2024-01-18T22:00:00.917Z,2.27
2024-01-18T22:02:31.717Z,1.57
2024-01-18T22:05:00.671Z,1.63
2024-01-18T22:07:29.288Z,1.37
2024-01-18T22:09:58.325Z,1.93
2024-01-18T22:12:28.311Z,2.03
2024-01-18T22:14:56.964Z,2.10
2024-01-18T22:17:25.709Z,1.93
2024-01-18T22:20:00.957Z,0.83
2024-01-18T22:22:33.388Z,1.50
2024-01-18T22:25:01.985Z,1.87
2024-01-18T22:27:31.933Z,1.60
2024-01-18T22:30:00.547Z,1.83
2024-01-18T22:32:29.222Z,2.57
2024-01-18T22:34:57.978Z,2.27
2024-01-18T22:37:26.529Z,1.80
2024-01-18T22:39:55.202Z,2.17
2024-01-18T22:42:23.882Z,1.80
2024-01-18T22:44:53.933Z,1.43
2024-01-18T22:47:22.616Z,1.90
2024-01-18T22:49:51.277Z,1.57
2024-01-18T22:52:19.921Z,1.20
2024-01-18T22:54:48.496Z,1.60
2024-01-18T22:57:17.127Z,1.30
2024-01-18T22:59:45.857Z,1.20
2024-01-18T23:02:15.762Z,1.50
2024-01-18T23:04:44.436Z,1.50
2024-01-18T23:07:13.019Z,1.00
2024-01-18T23:09:41.579Z,1.67
2024-01-18T23:12:10.151Z,0.87
2024-01-18T23:14:38.754Z,0.90
2024-01-18T23:17:07.387Z,0.57
2024-01-18T23:19:37.327Z,1.37
2024-01-18T23:22:06.004Z,0.90
2024-01-18T23:24:34.593Z,1.17
2024-01-18T23:27:03.189Z,1.30
2024-01-18T23:29:32.647Z,1.57
2024-01-18T23:32:01.174Z,1.10
2024-01-18T23:34:29.809Z,1.37
2024-01-18T23:36:59.834Z,1.00
2024-01-18T23:39:28.459Z,1.30
2024-01-18T23:41:59.636Z,1.03
2024-01-18T23:44:28.194Z,1.17
2024-01-18T23:46:56.721Z,1.17
2024-01-18T23:49:25.490Z,1.47
2024-01-18T23:51:54.152Z,1.23
2024-01-18T23:54:23.997Z,1.57
2024-01-18T23:56:52.582Z,1.77
2024-01-18T23:59:21.304Z,1.57
